createdAt,value
2019-05-17T00:01:27.050Z,97.27
2019-05-17T00:03:59.572Z,97.11
2019-05-17T00:06:32.554Z,97.07
2019-05-17T00:09:07.097Z,97.12
2019-05-17T00:11:40.078Z,97.24
2019-05-17T00:14:12.752Z,97.24
2019-05-17T00:16:46.955Z,97.32
2019-05-17T00:19:21.998Z,97.18
2019-05-17T00:21:56.676Z,97.36
2019-05-17T00:24:29.193Z,97.68
2019-05-17T00:27:01.795Z,98.15
2019-05-17T00:29:37.011Z,98.10
2019-05-17T00:32:09.073Z,97.99
2019-05-17T00:34:42.270Z,98.01
2019-05-17T00:37:17.183Z,97.97
2019-05-17T00:39:49.372Z,97.50
2019-05-17T00:42:22.048Z,97.29
2019-05-17T00:44:56.528Z,97.22
2019-05-17T00:47:29.253Z,96.76
2019-05-17T00:50:03.262Z,96.40
2019-05-17T00:52:36.910Z,96.17
2019-05-17T00:55:10.977Z,96.38
2019-05-17T00:57:43.767Z,96.10
2019-05-17T01:00:17.563Z,96.92
2019-05-17T01:02:50.256Z,97.07
2019-05-17T01:05:22.917Z,96.56
2019-05-17T01:07:57.252Z,96.56
2019-05-17T01:10:29.404Z,96.29
2019-05-17T01:13:02.079Z,96.09
2019-05-17T01:15:36.839Z,95.98
2019-05-17T01:18:10.824Z,96.46
2019-05-17T01:20:44.124Z,96.29
2019-05-17T01:23:16.803Z,96.13
2019-05-17T01:25:49.541Z,96.12
2019-05-17T01:28:21.771Z,96.33
2019-05-17T01:30:56.833Z,96.52
2019-05-17T01:33:29.262Z,96.80
2019-05-17T01:36:03.568Z,96.93
2019-05-17T01:38:37.779Z,97.22
2019-05-17T01:41:10.460Z,97.54
2019-05-17T01:43:43.198Z,97.67
2019-05-17T01:46:17.174Z,97.91
2019-05-17T01:48:50.144Z,98.02
2019-05-17T01:51:22.433Z,97.92
2019-05-17T01:53:57.213Z,97.74
2019-05-17T01:56:29.408Z,97.53
2019-05-17T01:59:02.403Z,97.89
2019-05-17T02:01:37.126Z,97.91
2019-05-17T02:04:09.301Z,97.99
2019-05-17T02:06:41.977Z,97.96
2019-05-17T02:09:24.975Z,97.83
2019-05-17T02:11:48.672Z,97.80
2019-05-17T02:14:21.447Z,98.18
2019-05-17T02:16:54.529Z,98.07
2019-05-17T02:19:27.427Z,98.32
2019-05-17T02:22:00.200Z,98.39
2019-05-17T02:24:32.887Z,98.37
2019-05-17T02:27:05.756Z,98.44
2019-05-17T02:29:38.853Z,98.65
2019-05-17T02:32:12.964Z,98.39
2019-05-17T02:34:47.083Z,98.29
2019-05-17T02:37:22.904Z,98.78
2019-05-17T02:40:03.212Z,98.83
2019-05-17T02:42:28.701Z,98.70
2019-05-17T02:45:03.141Z,98.65
2019-05-17T02:47:35.284Z,98.59
2019-05-17T02:50:08.611Z,98.57
2019-05-17T02:52:43.797Z,98.47
2019-05-17T02:55:16.955Z,98.49
2019-05-17T02:57:52.688Z,98.44
2019-05-17T03:00:24.373Z,98.52
2019-05-17T03:02:57.754Z,98.72
2019-05-17T03:05:33.443Z,98.95
2019-05-17T03:08:04.843Z,99.38
2019-05-17T03:10:37.384Z,99.78
2019-05-17T03:13:12.803Z,99.98
2019-05-17T03:15:44.902Z,100.00
2019-05-17T03:18:17.989Z,100.00
2019-05-17T03:20:52.563Z,100.00
2019-05-17T03:23:25.288Z,100.00
2019-05-17T03:25:57.972Z,100.00
2019-05-17T03:28:33.544Z,100.00
2019-05-17T03:31:08.483Z,100.00
2019-05-17T03:33:45.324Z,100.00
2019-05-17T03:36:16.906Z,100.00
2019-05-17T03:38:48.903Z,100.00
2019-05-17T03:41:28.489Z,100.00
2019-05-17T03:43:55.837Z,100.00
2019-05-17T03:46:28.516Z,100.00
2019-05-17T03:49:03.888Z,100.00
2019-05-17T03:51:35.410Z,100.00
2019-05-17T03:54:08.090Z,100.00
2019-05-17T03:56:42.825Z,100.00
2019-05-17T03:59:15.084Z,100.00
2019-05-17T04:01:47.868Z,99.83
2019-05-17T04:04:22.869Z,99.72
2019-05-17T04:06:54.451Z,99.92
2019-05-17T04:09:28.155Z,100.00
2019-05-17T04:12:02.797Z,100.00
2019-05-17T04:14:35.161Z,99.99
2019-05-17T04:17:07.778Z,99.93
2019-05-17T04:19:42.610Z,99.87
2019-05-17T04:22:14.616Z,99.95
2019-05-17T04:24:46.910Z,99.91
2019-05-17T04:27:22.785Z,99.90
2019-05-17T04:29:53.792Z,99.97
2019-05-17T04:32:26.034Z,99.79
2019-05-17T04:34:58.752Z,99.47
2019-05-17T04:37:33.591Z,99.33
2019-05-17T04:40:07.679Z,99.02
2019-05-17T04:42:43.519Z,98.86
2019-05-17T04:45:15.601Z,98.94
2019-05-17T04:47:49.402Z,98.78
2019-05-17T04:50:23.148Z,98.69
2019-05-17T04:52:56.117Z,98.43
2019-05-17T04:55:28.781Z,98.36
2019-05-17T04:58:03.897Z,97.68
2019-05-17T05:00:38.163Z,97.21
2019-05-17T05:06:19.482Z,95.40
2019-05-17T05:08:56.610Z,94.79
2019-05-17T05:11:51.576Z,94.77
2019-05-17T05:14:12.820Z,94.27
2019-05-17T05:16:44.996Z,94.21
2019-05-17T05:19:18.735Z,94.01
2019-05-17T05:21:57.728Z,93.97
2019-05-17T05:24:33.222Z,93.90
2019-05-17T05:27:18.582Z,93.56
2019-05-17T05:29:59.222Z,93.15
2019-05-17T05:32:39.051Z,92.62
2019-05-17T05:35:24.758Z,91.40
2019-05-17T05:38:07.708Z,91.18
2019-05-17T05:40:47.188Z,90.49
2019-05-17T05:43:34.441Z,90.29
2019-05-17T05:46:23.610Z,89.25
2019-05-17T05:49:01.870Z,87.96
2019-05-17T05:51:52.227Z,87.69
2019-05-17T05:54:41.758Z,86.80
2019-05-17T05:57:42.101Z,86.56
2019-05-17T06:07:03.895Z,83.43
2019-05-17T06:38:56.795Z,77.74
2019-05-17T08:49:35.804Z,71.57
2019-05-17T09:59:09.865Z,64.27
2019-05-17T10:01:33.744Z,63.39
2019-05-17T10:04:06.970Z,62.76
2019-05-17T10:06:40.158Z,62.85
2019-05-17T10:09:12.890Z,62.52
2019-05-17T10:11:45.554Z,62.12
2019-05-17T10:14:25.775Z,62.31
2019-05-17T10:17:00.299Z,61.51
2019-05-17T10:19:32.659Z,63.79
2019-05-17T10:22:05.379Z,62.82
2019-05-17T10:24:42.028Z,63.51
2019-05-17T10:27:14.574Z,62.63
2019-05-17T10:29:46.496Z,61.19
2019-05-17T10:32:20.480Z,61.61
2019-05-17T10:34:53.596Z,60.60
2019-05-17T10:37:26.265Z,60.07
2019-05-17T10:39:58.954Z,61.55
2019-05-17T10:42:31.635Z,63.83
2019-05-17T10:45:05.748Z,64.88
2019-05-17T10:47:39.695Z,64.34
2019-05-17T10:50:17.556Z,64.95
2019-05-17T10:52:50.560Z,64.79
2019-05-17T10:55:23.239Z,64.17
2019-05-17T10:57:56.002Z,62.64
2019-05-17T11:00:30.321Z,61.35
2019-05-17T11:03:03.620Z,59.45
2019-05-17T11:05:36.283Z,62.36
2019-05-17T11:08:10.640Z,60.86
2019-05-17T11:10:44.409Z,61.10
2019-05-17T11:13:17.205Z,61.85
2019-05-17T11:15:49.869Z,61.18
2019-05-17T11:18:22.547Z,61.75
2019-05-17T11:20:55.238Z,62.33
2019-05-17T11:23:27.535Z,62.61
2019-05-17T11:26:00.191Z,64.09
2019-05-17T11:28:32.522Z,65.27
2019-05-17T11:31:07.599Z,64.14
2019-05-17T11:33:40.801Z,65.38
2019-05-17T11:36:13.457Z,65.67
2019-05-17T11:38:46.237Z,65.04
2019-05-17T11:41:21.531Z,64.62
2019-05-17T11:43:57.027Z,64.55
2019-05-17T11:46:36.108Z,63.87
2019-05-17T11:49:08.346Z,62.89
2019-05-17T11:51:41.023Z,62.92
2019-05-17T11:54:13.359Z,64.30
2019-05-17T11:56:46.047Z,62.58
2019-05-17T11:59:18.734Z,62.97
2019-05-17T12:01:51.409Z,60.40
2019-05-17T12:04:24.059Z,60.59
2019-05-17T12:06:56.667Z,60.56
2019-05-17T12:09:37.239Z,61.81
2019-05-17T12:12:06.527Z,61.95
2019-05-17T12:14:39.211Z,62.36
2019-05-17T12:17:11.843Z,62.54
2019-05-17T12:19:44.560Z,62.85
2019-05-17T12:22:17.341Z,62.60
2019-05-17T12:24:56.483Z,61.70
2019-05-17T12:27:29.269Z,63.54
2019-05-17T12:30:02.427Z,63.18
2019-05-17T12:32:38.454Z,64.86
2019-05-17T12:35:11.252Z,65.67
2019-05-17T12:37:44.125Z,65.90
2019-05-17T12:47:08.697Z,68.49
2019-05-17T12:52:15.180Z,70.81
2019-05-17T12:54:49.505Z,72.67
2019-05-17T12:57:22.801Z,73.87
2019-05-17T12:59:55.486Z,77.52
2019-05-17T13:02:28.259Z,77.25
2019-05-17T13:05:00.934Z,77.63
2019-05-17T13:07:33.624Z,78.33
2019-05-17T13:10:07.824Z,80.68
2019-05-17T13:12:40.512Z,79.11
2019-05-17T13:15:13.591Z,79.01
2019-05-17T13:17:46.270Z,79.66
2019-05-17T13:20:19.675Z,80.06
2019-05-17T13:22:52.352Z,79.50
2019-05-17T13:25:25.338Z,76.33
2019-05-17T13:27:58.020Z,77.36
2019-05-17T13:30:32.438Z,72.50
2019-05-17T13:33:05.325Z,71.58
2019-05-17T13:35:38.009Z,74.26
2019-05-17T13:38:10.690Z,75.08
2019-05-17T13:40:43.365Z,72.96
2019-05-17T13:43:16.045Z,74.29
2019-05-17T13:45:48.277Z,74.38
2019-05-17T13:48:22.219Z,72.72
2019-05-17T13:50:55.095Z,70.92
2019-05-17T13:53:27.695Z,71.44
2019-05-17T13:56:00.359Z,69.43
2019-05-17T13:58:33.132Z,67.82
2019-05-17T14:01:05.915Z,69.42
2019-05-17T14:03:38.622Z,65.44
2019-05-17T14:06:12.306Z,63.66
2019-05-17T14:08:44.603Z,63.09
2019-05-17T14:11:17.245Z,62.54
2019-05-17T14:13:49.923Z,58.20
2019-05-17T14:16:22.615Z,56.71
2019-05-17T14:18:55.286Z,53.02
2019-05-17T14:21:27.959Z,52.56
2019-05-17T14:24:00.643Z,55.95
2019-05-17T14:26:33.677Z,53.94
2019-05-17T14:29:06.407Z,52.93
2019-05-17T14:31:39.104Z,53.50
2019-05-17T14:34:11.869Z,50.09
2019-05-17T14:36:44.469Z,50.40
2019-05-17T14:39:18.157Z,47.52
2019-05-17T14:41:50.830Z,47.63
2019-05-17T14:44:23.510Z,45.29
2019-05-17T14:46:56.197Z,41.94
2019-05-17T14:49:28.881Z,42.98
2019-05-17T14:52:01.548Z,42.69
2019-05-17T14:54:34.225Z,39.74
2019-05-17T14:57:06.929Z,40.90
2019-05-17T14:59:39.595Z,41.17
2019-05-17T15:02:12.251Z,38.56
2019-05-17T15:04:44.948Z,38.79
2019-05-17T15:07:17.219Z,42.10
2019-05-17T15:09:51.741Z,39.12
2019-05-17T15:12:28.471Z,39.06
2019-05-17T15:15:03.794Z,38.20
2019-05-17T15:17:41.380Z,37.75
2019-05-17T15:20:16.525Z,37.76
2019-05-17T15:22:50.523Z,36.08
2019-05-17T15:25:23.986Z,36.55
2019-05-17T15:27:57.927Z,36.82
2019-05-17T15:30:34.834Z,35.56
2019-05-17T15:33:10.207Z,33.33
2019-05-17T15:35:46.473Z,34.40
2019-05-17T15:38:19.866Z,35.47
2019-05-17T15:40:52.967Z,34.21
2019-05-17T15:43:25.955Z,33.59
2019-05-17T15:45:58.640Z,34.15
2019-05-17T15:48:31.320Z,32.83
2019-05-17T15:51:04.039Z,32.60
2019-05-17T15:53:36.670Z,34.49
2019-05-17T15:56:08.961Z,33.58
2019-05-17T15:58:41.204Z,32.95
2019-05-17T16:01:13.894Z,32.23
2019-05-17T16:03:46.572Z,32.81
2019-05-17T16:06:19.260Z,34.38
2019-05-17T16:08:51.940Z,33.28
2019-05-17T16:11:24.617Z,31.45
2019-05-17T16:13:57.293Z,31.20
2019-05-17T16:16:29.970Z,32.68
2019-05-17T16:19:02.223Z,32.15
2019-05-17T16:21:34.534Z,31.02
2019-05-17T16:24:07.284Z,32.39
2019-05-17T16:26:40.483Z,34.22
2019-05-17T16:29:13.162Z,34.61
2019-05-17T16:31:45.893Z,34.05
2019-05-17T16:34:18.557Z,34.62
2019-05-17T16:36:51.199Z,33.78
2019-05-17T16:39:23.891Z,34.15
2019-05-17T16:41:56.561Z,34.61
2019-05-17T16:44:29.243Z,34.51
2019-05-17T16:47:01.927Z,36.41
2019-05-17T16:49:34.599Z,35.63
2019-05-17T16:52:07.285Z,35.99
2019-05-17T16:54:39.959Z,34.67
2019-05-17T16:57:12.897Z,36.78
2019-05-17T16:59:45.516Z,37.25
2019-05-17T17:02:18.200Z,38.21
2019-05-17T17:04:51.290Z,37.70
2019-05-17T17:07:23.966Z,36.74
2019-05-17T17:09:56.645Z,38.47
2019-05-17T17:12:29.427Z,38.95
2019-05-17T17:15:02.036Z,38.96
2019-05-17T17:17:34.785Z,39.79
2019-05-17T17:20:08.562Z,39.97
2019-05-17T17:22:41.267Z,40.25
2019-05-17T17:25:14.162Z,41.10
2019-05-17T17:27:47.245Z,46.08
2019-05-17T17:30:20.073Z,49.46
2019-05-17T17:32:52.385Z,52.40
2019-05-17T17:35:25.092Z,55.80
2019-05-17T17:37:59.304Z,55.80
2019-05-17T17:40:31.988Z,56.63
2019-05-17T17:43:04.649Z,58.20
2019-05-17T17:45:37.416Z,58.52
2019-05-17T17:48:10.210Z,59.14
2019-05-17T17:50:44.871Z,60.05
2019-05-17T17:53:17.137Z,60.81
2019-05-17T17:55:49.797Z,60.43
2019-05-17T17:58:22.529Z,61.75
2019-05-17T18:00:55.143Z,61.88
2019-05-17T18:03:27.838Z,62.79
2019-05-17T18:06:00.505Z,63.03
2019-05-17T18:08:34.722Z,64.02
2019-05-17T18:11:07.611Z,65.65
2019-05-17T18:13:40.395Z,66.93
2019-05-17T18:16:13.077Z,68.86
2019-05-17T18:18:45.856Z,70.30
2019-05-17T18:21:18.669Z,71.08
2019-05-17T18:23:51.539Z,72.45
2019-05-17T21:07:07.476Z,94.52
2019-05-17T21:09:40.370Z,93.94
2019-05-17T21:12:13.039Z,94.32
2019-05-17T21:14:45.830Z,94.76
2019-05-17T21:17:18.504Z,94.68
2019-05-17T21:19:51.193Z,95.07
2019-05-17T21:22:23.867Z,95.23
2019-05-17T21:24:56.789Z,95.27
2019-05-17T21:27:29.430Z,94.30
2019-05-17T21:30:02.113Z,93.93
2019-05-17T21:32:35.527Z,94.00
2019-05-17T21:35:09.311Z,94.91
2019-05-17T21:37:41.984Z,95.62
2019-05-17T21:40:15.283Z,94.74
2019-05-17T21:42:47.963Z,94.23
2019-05-17T21:45:21.876Z,94.66
2019-05-17T21:47:54.549Z,95.00
2019-05-17T21:50:27.222Z,94.74
2019-05-17T21:52:59.789Z,95.94
2019-05-17T21:55:32.477Z,96.67
2019-05-17T21:58:05.052Z,96.84
2019-05-17T22:00:52.891Z,96.62
2019-05-17T22:03:25.568Z,96.76
2019-05-17T22:05:58.654Z,97.06
2019-05-17T22:08:31.237Z,97.15
2019-05-17T22:11:04.628Z,97.64
2019-05-17T22:13:37.311Z,98.12
2019-05-17T22:16:19.013Z,98.09
2019-05-17T22:18:44.199Z,97.08
2019-05-17T22:21:16.880Z,96.51
2019-05-17T22:23:49.569Z,96.13
2019-05-17T22:26:22.243Z,95.89
2019-05-17T22:28:54.922Z,96.22
2019-05-17T22:31:28.828Z,96.16
2019-05-17T22:34:01.415Z,96.08
2019-05-17T22:36:34.079Z,96.11
2019-05-17T22:39:08.504Z,96.25
2019-05-17T22:41:41.180Z,96.45
2019-05-17T22:44:14.074Z,96.50
2019-05-17T22:46:47.059Z,97.90
2019-05-17T22:49:19.936Z,98.02
2019-05-17T22:51:52.204Z,97.78
2019-05-17T22:54:24.887Z,98.64
2019-05-17T22:56:57.767Z,98.93
2019-05-17T22:59:30.455Z,99.21
2019-05-17T23:02:03.146Z,99.19
2019-05-17T23:04:35.358Z,98.83
2019-05-17T23:07:08.186Z,100.00
2019-05-17T23:09:41.167Z,100.00
2019-05-17T23:12:15.625Z,100.00
2019-05-17T23:14:48.365Z,100.00
2019-05-17T23:17:21.354Z,100.00
2019-05-17T23:19:54.242Z,100.00
2019-05-17T23:22:26.922Z,100.00
2019-05-17T23:24:59.708Z,100.00
2019-05-17T23:27:32.689Z,100.00
2019-05-17T23:30:07.726Z,100.00
2019-05-17T23:32:40.508Z,100.00
2019-05-17T23:35:13.284Z,100.00
2019-05-17T23:37:46.173Z,100.00
2019-05-17T23:40:19.505Z,100.00
2019-05-17T23:42:52.150Z,100.00
2019-05-17T23:45:25.125Z,100.00
2019-05-17T23:47:57.799Z,100.00
2019-05-17T23:50:31.616Z,100.00
2019-05-17T23:53:04.290Z,100.00
2019-05-17T23:55:36.976Z,100.00
2019-05-17T23:58:09.648Z,100.00
